createdAt,value
2019-03-01T00:00:15.217Z,41.95
2019-03-01T00:01:15.193Z,41.93
2019-03-01T00:02:15.426Z,41.93
2019-03-01T00:03:15.092Z,41.92
2019-03-01T00:04:14.932Z,41.92
2019-03-01T00:05:15.147Z,41.87
2019-03-01T00:06:15.138Z,41.91
2019-03-01T00:07:15.078Z,41.92
2019-03-01T00:08:15.213Z,41.96
2019-03-01T00:09:14.995Z,41.93
2019-03-01T00:10:15.050Z,41.95
2019-03-01T00:11:15.170Z,41.88
2019-03-01T00:12:15.105Z,41.92
2019-03-01T00:13:15.388Z,41.91
2019-03-01T00:14:14.947Z,41.9
2019-03-01T00:15:15.062Z,41.89
2019-03-01T00:16:15.059Z,41.86
2019-03-01T00:17:15.103Z,41.89
2019-03-01T00:18:15.147Z,41.9
2019-03-01T00:19:15.181Z,41.89
2019-03-01T00:20:14.885Z,41.9
2019-03-01T00:21:15.120Z,41.89
2019-03-01T00:22:15.388Z,41.94
2019-03-01T00:23:15.030Z,41.89
2019-03-01T00:24:15.440Z,41.92
2019-03-01T00:25:14.953Z,41.94
2019-03-01T00:26:14.988Z,41.9
2019-03-01T00:27:15.209Z,41.89
2019-03-01T00:28:14.977Z,41.87
2019-03-01T00:29:15.105Z,41.91
2019-03-01T00:30:15.220Z,41.95
2019-03-01T00:31:15.083Z,41.97
2019-03-01T00:32:15.148Z,41.93
2019-03-01T00:33:14.828Z,41.92
2019-03-01T00:34:15.009Z,41.95
2019-03-01T00:35:15.145Z,41.94
2019-03-01T00:36:15.371Z,41.92
2019-03-01T00:37:15.197Z,41.91
2019-03-01T00:38:15.152Z,41.91
2019-03-01T00:39:14.963Z,41.9
2019-03-01T00:40:15.153Z,41.92
2019-03-01T00:41:15.036Z,41.91
2019-03-01T00:42:15.094Z,41.88
2019-03-01T00:43:15.218Z,41.92
2019-03-01T00:44:14.980Z,41.96
2019-03-01T00:45:15.188Z,41.91
2019-03-01T00:46:15.257Z,41.99
2019-03-01T00:47:15.037Z,41.95
2019-03-01T00:48:15.097Z,41.93
2019-03-01T00:49:14.873Z,41.93
2019-03-01T00:50:15.068Z,41.91
2019-03-01T00:51:15.288Z,41.89
2019-03-01T00:52:14.970Z,41.9
2019-03-01T00:53:15.106Z,41.88
2019-03-01T00:54:14.982Z,41.94
2019-03-01T00:55:15.052Z,41.94
2019-03-01T00:56:15.098Z,41.93
2019-03-01T00:57:15.101Z,41.97
2019-03-01T00:58:14.970Z,41.98
2019-03-01T00:59:15.243Z,41.94
2019-03-01T01:00:15.028Z,41.97
2019-03-01T01:01:15.005Z,41.92
2019-03-01T01:02:15.108Z,41.93
2019-03-01T01:03:14.990Z,41.92
2019-03-01T01:04:15.099Z,41.94
2019-03-01T01:05:14.864Z,41.89
2019-03-01T01:06:14.964Z,41.91
2019-03-01T01:07:15.390Z,41.98
2019-03-01T01:08:14.933Z,41.97
2019-03-01T01:09:15.025Z,41.95
2019-03-01T01:10:15.076Z,41.99
2019-03-01T01:11:14.995Z,42.01
2019-03-01T01:12:15.171Z,41.97
2019-03-01T01:13:15.213Z,41.97
2019-03-01T01:14:14.901Z,41.97
2019-03-01T01:15:15.060Z,41.98
2019-03-01T01:16:14.846Z,41.93
2019-03-01T01:17:15.000Z,41.97
2019-03-01T01:18:15.113Z,41.95
2019-03-01T01:19:14.894Z,41.96
2019-03-01T01:20:14.933Z,41.9
2019-03-01T01:21:14.998Z,41.97
2019-03-01T01:22:15.194Z,41.94
2019-03-01T01:23:15.039Z,41.95
2019-03-01T01:24:15.125Z,41.92
2019-03-01T01:25:14.888Z,41.87
2019-03-01T01:26:15.037Z,41.92
2019-03-01T01:27:15.030Z,41.92
2019-03-01T01:28:14.913Z,41.97
2019-03-01T01:29:14.970Z,41.92
2019-03-01T01:30:15.245Z,41.97
2019-03-01T01:31:15.072Z,41.93
2019-03-01T01:32:14.979Z,41.96
2019-03-01T01:33:15.091Z,41.97
2019-03-01T01:34:14.962Z,41.95
2019-03-01T01:35:15.005Z,41.89
2019-03-01T01:36:15.124Z,41.95
2019-03-01T01:37:14.928Z,41.97
2019-03-01T01:38:15.033Z,41.97
2019-03-01T01:39:14.844Z,41.97
2019-03-01T01:40:14.971Z,41.96
2019-03-01T01:41:15.054Z,41.96
2019-03-01T01:42:14.938Z,41.93
2019-03-01T01:43:14.901Z,42.01
2019-03-01T01:44:15.004Z,41.96
2019-03-01T01:45:14.921Z,41.94
2019-03-01T01:46:14.956Z,41.96
2019-03-01T01:47:15.055Z,41.97
2019-03-01T01:48:14.841Z,41.96
2019-03-01T01:49:14.952Z,41.95
2019-03-01T01:50:14.862Z,41.96
2019-03-01T01:51:14.826Z,41.92
2019-03-01T01:52:15.016Z,41.91
2019-03-01T01:53:14.902Z,41.89
2019-03-01T01:54:14.974Z,41.93
2019-03-01T01:55:15.105Z,41.93
2019-03-01T01:56:14.821Z,41.93
2019-03-01T01:57:14.936Z,41.94
2019-03-01T01:58:15.043Z,41.93
2019-03-01T01:59:14.862Z,41.93
2019-03-01T02:00:14.895Z,41.96
2019-03-01T02:01:15.052Z,41.89
2019-03-01T02:02:14.910Z,41.97
2019-03-01T02:03:14.925Z,41.97
2019-03-01T02:04:15.060Z,41.99
2019-03-01T02:05:15.090Z,41.98
2019-03-01T02:06:14.955Z,41.98
2019-03-01T02:07:15.093Z,41.97
2019-03-01T02:08:14.972Z,41.95
2019-03-01T02:09:14.971Z,41.98
2019-03-01T02:10:15.009Z,41.94
2019-03-01T02:11:14.956Z,41.95
2019-03-01T02:12:14.954Z,41.93
2019-03-01T02:13:14.827Z,41.93
2019-03-01T02:14:14.915Z,41.93
2019-03-01T02:15:15.027Z,41.94
2019-03-01T02:16:14.865Z,41.95
2019-03-01T02:17:14.971Z,41.98
2019-03-01T02:18:15.025Z,41.97
2019-03-01T02:19:14.911Z,41.94
2019-03-01T02:20:14.994Z,41.95
2019-03-01T02:21:15.035Z,41.96
2019-03-01T02:22:14.933Z,41.95
2019-03-01T02:23:15.254Z,41.95
2019-03-01T02:24:15.034Z,41.93
2019-03-01T02:25:14.893Z,41.99
2019-03-01T02:26:15.042Z,41.97
2019-03-01T02:27:15.052Z,41.97
2019-03-01T02:28:14.890Z,41.96
2019-03-01T02:29:15.061Z,41.94
2019-03-01T02:30:14.961Z,41.92
2019-03-01T02:31:15.040Z,41.97
2019-03-01T02:32:15.088Z,41.99
2019-03-01T02:33:14.920Z,41.99
2019-03-01T02:34:14.907Z,41.96
2019-03-01T02:35:15.191Z,42.02
2019-03-01T02:36:14.888Z,42
2019-03-01T02:37:14.964Z,42.01
2019-03-01T02:38:15.037Z,41.99
2019-03-01T02:39:14.902Z,41.99
2019-03-01T02:40:14.960Z,42
2019-03-01T02:41:15.076Z,41.98
2019-03-01T02:42:14.920Z,41.98
2019-03-01T02:43:14.940Z,42.02
2019-03-01T02:44:15.071Z,42
2019-03-01T02:45:14.982Z,41.97
2019-03-01T02:46:15.031Z,42
2019-03-01T02:47:14.915Z,42
2019-03-01T02:48:15.147Z,41.97
2019-03-01T02:49:15.233Z,42.02
2019-03-01T02:50:14.792Z,41.99
2019-03-01T02:51:14.987Z,42.01
2019-03-01T02:52:15.142Z,42
2019-03-01T02:53:14.889Z,42.02
2019-03-01T02:54:15.016Z,42.03
2019-03-01T02:55:15.044Z,42.01
2019-03-01T02:56:14.873Z,41.97
2019-03-01T02:57:14.888Z,42.01
2019-03-01T02:58:15.098Z,42
2019-03-01T02:59:14.899Z,42.03
2019-03-01T03:00:15.021Z,42
2019-03-01T03:01:15.057Z,41.99
2019-03-01T03:02:14.948Z,41.98
2019-03-01T03:03:14.898Z,41.98
2019-03-01T03:04:15.115Z,41.99
2019-03-01T03:05:14.797Z,42.02
2019-03-01T03:06:14.974Z,41.97
2019-03-01T03:07:15.145Z,41.95
2019-03-01T03:08:14.981Z,42.01
2019-03-01T03:09:15.246Z,41.96
2019-03-01T03:10:15.065Z,41.98
2019-03-01T03:11:15.066Z,41.97
2019-03-01T03:12:15.100Z,42.01
2019-03-01T03:13:14.929Z,41.99
2019-03-01T03:14:14.945Z,41.98
2019-03-01T03:15:15.028Z,41.97
2019-03-01T03:16:15.174Z,41.99
2019-03-01T03:17:14.933Z,41.99
2019-03-01T03:18:15.123Z,41.99
2019-03-01T03:19:14.989Z,42.03
2019-03-01T03:20:14.868Z,41.97
2019-03-01T03:21:15.128Z,41.97
2019-03-01T03:22:14.898Z,41.91
2019-03-01T03:23:14.967Z,42
2019-03-01T03:24:15.067Z,42.02
2019-03-01T03:25:14.928Z,41.98
2019-03-01T03:26:15.056Z,41.91
2019-03-01T03:27:15.077Z,41.98
2019-03-01T03:28:15.099Z,41.95
2019-03-01T03:29:14.925Z,41.97
2019-03-01T03:30:14.950Z,41.98
2019-03-01T03:31:15.223Z,41.98
2019-03-01T03:32:15.275Z,41.97
2019-03-01T03:33:15.115Z,42
2019-03-01T03:34:15.242Z,41.99
2019-03-01T03:35:15.311Z,42
2019-03-01T03:36:14.964Z,41.98
2019-03-01T03:37:15.011Z,42.01
2019-03-01T03:38:15.151Z,42
2019-03-01T03:39:14.861Z,42
2019-03-01T03:40:15.043Z,41.97
2019-03-01T03:41:15.145Z,41.99
2019-03-01T03:42:15.224Z,42.01
2019-03-01T03:43:15.165Z,42.04
2019-03-01T03:44:14.935Z,42.05
2019-03-01T03:45:14.960Z,42.02
2019-03-01T03:46:15.126Z,42.02
2019-03-01T03:47:15.022Z,42.04
2019-03-01T03:48:14.976Z,42.01
2019-03-01T03:49:15.130Z,42.05
2019-03-01T03:50:15.096Z,42.01
2019-03-01T03:51:14.975Z,42.04
2019-03-01T03:52:15.170Z,42
2019-03-01T03:53:15.323Z,42.02
2019-03-01T03:54:15.105Z,42.02
2019-03-01T03:55:15.094Z,41.99
2019-03-01T03:56:14.990Z,42
2019-03-01T03:57:14.996Z,42
2019-03-01T03:58:15.254Z,42.01
2019-03-01T03:59:14.963Z,42.05
2019-03-01T04:00:15.154Z,42.04
2019-03-01T04:01:15.031Z,41.99
2019-03-01T04:02:15.013Z,42.01
2019-03-01T04:03:15.336Z,42.02
2019-03-01T04:04:14.852Z,42.02
2019-03-01T04:05:15.320Z,42.03
2019-03-01T04:06:15.226Z,42.05
2019-03-01T04:07:14.929Z,42.04
2019-03-01T04:08:15.036Z,42.02
2019-03-01T04:09:14.899Z,42.02
2019-03-01T04:10:15.261Z,42.04
2019-03-01T04:11:15.073Z,42.02
2019-03-01T04:12:14.983Z,42.06
2019-03-01T04:13:17.201Z,42.06
2019-03-01T04:14:15.108Z,42.06
2019-03-01T04:15:15.116Z,42.04
2019-03-01T04:16:15.048Z,42.05
2019-03-01T04:17:15.074Z,42.01
2019-03-01T04:18:14.907Z,42.02
2019-03-01T04:19:14.963Z,42.02
2019-03-01T04:20:15.120Z,42.02
2019-03-01T04:21:14.956Z,42.03
2019-03-01T04:22:14.964Z,42.01
2019-03-01T04:23:15.148Z,42.04
2019-03-01T04:24:15.097Z,42.06
2019-03-01T04:25:14.995Z,42.01
2019-03-01T04:26:15.111Z,42.03
2019-03-01T04:27:15.047Z,41.99
2019-03-01T04:28:15.082Z,42.02
2019-03-01T04:29:14.982Z,42.01
2019-03-01T04:30:14.989Z,42
2019-03-01T04:31:15.016Z,42.02
2019-03-01T04:32:14.834Z,42.06
2019-03-01T04:33:14.955Z,42.02
2019-03-01T04:34:14.962Z,42.01
2019-03-01T04:35:14.848Z,42
2019-03-01T04:36:14.925Z,42.01
2019-03-01T04:37:15.271Z,41.99
2019-03-01T04:38:15.059Z,42.02
2019-03-01T04:39:14.968Z,42.01
2019-03-01T04:40:14.830Z,42.04
2019-03-01T04:41:14.900Z,42
2019-03-01T04:42:14.925Z,42.06
2019-03-01T04:43:14.839Z,42.03
2019-03-01T04:44:14.902Z,42.08
2019-03-01T04:45:15.019Z,42.03
2019-03-01T04:46:14.760Z,42.02
2019-03-01T04:47:14.824Z,42.04
2019-03-01T04:48:14.959Z,42.04
2019-03-01T04:49:14.875Z,42.04
2019-03-01T04:50:14.850Z,42.08
2019-03-01T04:51:14.967Z,42.12
2019-03-01T04:52:14.833Z,42.11
2019-03-01T04:53:14.866Z,42.15
2019-03-01T04:54:14.967Z,42.06
2019-03-01T04:55:14.945Z,42.1
2019-03-01T04:56:14.863Z,42.05
2019-03-01T04:57:15.028Z,42.08
2019-03-01T04:58:14.931Z,42.05
2019-03-01T04:59:14.869Z,41.99
2019-03-01T05:00:14.917Z,41.99
2019-03-01T05:01:14.788Z,42
2019-03-01T05:02:14.860Z,41.94
2019-03-01T05:03:15.039Z,41.92
2019-03-01T05:04:14.852Z,41.9
2019-03-01T05:05:14.888Z,41.96
2019-03-01T05:06:14.707Z,41.92
2019-03-01T05:07:14.841Z,41.9
2019-03-01T05:08:14.983Z,41.91
2019-03-01T05:09:14.753Z,41.94
2019-03-01T05:10:14.887Z,41.85
2019-03-01T05:11:14.883Z,41.89
2019-03-01T05:12:14.794Z,41.93
2019-03-01T05:13:15.074Z,41.83
2019-03-01T05:14:14.961Z,41.95
2019-03-01T05:15:14.899Z,41.96
2019-03-01T05:16:14.873Z,41.82
2019-03-01T05:17:14.741Z,41.97
2019-03-01T05:18:14.755Z,41.92
2019-03-01T05:19:15.130Z,41.97
2019-03-01T05:20:15.175Z,41.93
2019-03-01T05:21:14.819Z,42.01
2019-03-01T05:22:14.970Z,41.99
2019-03-01T05:23:14.762Z,41.93
2019-03-01T05:24:14.816Z,41.96
2019-03-01T05:25:14.970Z,41.92
2019-03-01T05:26:14.789Z,42.01
2019-03-01T05:27:14.829Z,41.99
2019-03-01T05:28:15.174Z,42.04
2019-03-01T05:29:14.831Z,42.02
2019-03-01T05:30:14.861Z,42.01
2019-03-01T05:31:14.998Z,42.04
2019-03-01T05:32:14.812Z,41.98
2019-03-01T05:33:14.912Z,42.01
2019-03-01T05:34:14.696Z,42.02
2019-03-01T05:35:14.775Z,42.02
2019-03-01T05:36:14.962Z,42.06
2019-03-01T05:37:14.747Z,42.02
2019-03-01T05:38:22.426Z,42.02
2019-03-01T05:39:14.927Z,42.02
2019-03-01T05:40:14.755Z,42.06
2019-03-01T05:41:14.954Z,41.99
2019-03-01T05:42:14.904Z,42.05
2019-03-01T05:43:14.747Z,42.05
2019-03-01T05:44:14.855Z,42.12
2019-03-01T05:45:14.969Z,42.02
2019-03-01T05:46:14.743Z,42.02
2019-03-01T05:47:14.983Z,41.98
2019-03-01T05:48:14.912Z,41.97
2019-03-01T05:49:14.790Z,42.03
2019-03-01T05:50:14.946Z,42.05
2019-03-01T05:51:14.797Z,42
2019-03-01T05:52:14.789Z,42.02
2019-03-01T05:53:15.091Z,42.06
2019-03-01T05:54:14.836Z,42
2019-03-01T05:55:14.831Z,41.99
2019-03-01T05:56:14.932Z,42.04
2019-03-01T05:57:14.781Z,41.99
2019-03-01T05:58:17.264Z,41.95
2019-03-01T05:59:15.119Z,41.92
2019-03-01T06:00:14.866Z,41.95
2019-03-01T06:01:14.891Z,41.97
2019-03-01T06:02:14.953Z,41.95
2019-03-01T06:03:15.026Z,41.93
2019-03-01T06:04:14.815Z,41.98
2019-03-01T06:05:14.970Z,41.97
2019-03-01T06:06:14.793Z,41.95
2019-03-01T06:07:14.805Z,41.97
2019-03-01T06:08:14.955Z,41.92
2019-03-01T06:09:14.853Z,41.98
2019-03-01T06:10:14.854Z,41.95
2019-03-01T06:11:14.745Z,41.94
2019-03-01T06:12:14.892Z,41.92
2019-03-01T06:13:14.862Z,41.98
2019-03-01T06:14:15.091Z,41.91
2019-03-01T06:15:14.936Z,41.93
2019-03-01T06:16:14.926Z,41.93
2019-03-01T06:17:14.719Z,41.87
2019-03-01T06:18:14.884Z,41.94
2019-03-01T06:19:14.929Z,41.88
2019-03-01T06:20:14.759Z,41.92
2019-03-01T06:21:14.940Z,41.87
2019-03-01T06:22:14.952Z,41.93
2019-03-01T06:23:14.730Z,41.91
2019-03-01T06:24:15.247Z,41.92
2019-03-01T06:25:15.288Z,41.87
2019-03-01T06:26:14.883Z,41.86
2019-03-01T06:27:16.755Z,41.84
2019-03-01T06:28:14.779Z,41.83
2019-03-01T06:29:14.832Z,41.86
2019-03-01T06:30:14.960Z,41.84
2019-03-01T06:31:14.825Z,41.84
2019-03-01T06:32:14.928Z,41.83
2019-03-01T06:33:14.954Z,41.86
2019-03-01T06:34:14.854Z,41.84
2019-03-01T06:35:14.795Z,41.86
2019-03-01T06:36:14.877Z,41.84
2019-03-01T06:37:14.875Z,41.82
2019-03-01T06:38:16.457Z,41.85
2019-03-01T06:39:15.023Z,41.81
2019-03-01T06:40:14.894Z,41.78
2019-03-01T06:41:14.863Z,41.77
2019-03-01T06:42:14.958Z,41.77
2019-03-01T06:43:14.863Z,41.8
2019-03-01T06:44:14.816Z,41.82
2019-03-01T06:45:15.000Z,41.78
2019-03-01T06:46:14.844Z,41.77
2019-03-01T06:47:14.866Z,41.8
2019-03-01T06:48:15.382Z,41.72
2019-03-01T06:49:14.793Z,41.8
2019-03-01T06:50:14.832Z,41.73
2019-03-01T06:51:14.977Z,41.79
2019-03-01T06:52:14.801Z,41.76
2019-03-01T06:53:14.820Z,41.77
2019-03-01T06:54:14.708Z,41.72
2019-03-01T06:55:14.792Z,41.72
2019-03-01T06:56:14.819Z,41.75
2019-03-01T06:57:14.671Z,41.71
2019-03-01T06:58:14.807Z,41.78
2019-03-01T06:59:14.851Z,41.74
2019-03-01T07:00:14.719Z,41.74
2019-03-01T07:01:14.843Z,41.72
2019-03-01T07:02:15.153Z,41.77
2019-03-01T07:03:14.725Z,41.79
2019-03-01T07:04:14.798Z,41.77
2019-03-01T07:05:14.854Z,41.77
2019-03-01T07:06:14.676Z,41.74
2019-03-01T07:07:14.930Z,41.77
2019-03-01T07:08:15.225Z,41.76
2019-03-01T07:09:14.842Z,41.74
2019-03-01T07:10:15.334Z,41.74
2019-03-01T07:11:14.850Z,41.74
2019-03-01T07:12:14.883Z,41.76
2019-03-01T07:13:14.968Z,41.75
2019-03-01T07:14:14.702Z,41.74
2019-03-01T07:15:14.876Z,41.75
2019-03-01T07:16:14.872Z,41.69
2019-03-01T07:17:14.942Z,41.71
2019-03-01T07:18:14.847Z,41.72
2019-03-01T07:19:14.896Z,41.71
2019-03-01T07:20:14.904Z,41.71
2019-03-01T07:21:14.737Z,41.7
2019-03-01T07:22:14.873Z,41.67
2019-03-01T07:23:14.738Z,41.73
2019-03-01T07:24:16.043Z,41.68
2019-03-01T07:25:15.074Z,41.65
2019-03-01T07:26:14.855Z,41.66
2019-03-01T07:27:14.908Z,41.72
2019-03-01T07:28:14.943Z,41.71
2019-03-01T07:29:14.751Z,41.63
2019-03-01T07:30:14.823Z,41.68
2019-03-01T07:31:14.926Z,41.72
2019-03-01T07:32:14.938Z,41.75
2019-03-01T07:33:14.784Z,42.15
2019-03-01T07:34:14.949Z,41.93
2019-03-01T07:35:14.908Z,42.35
2019-03-01T07:36:14.732Z,43.4
2019-03-01T07:37:14.815Z,43.41
2019-03-01T07:38:14.686Z,43.5
2019-03-01T07:39:14.769Z,43.63
2019-03-01T07:40:14.859Z,43.92
2019-03-01T07:41:14.694Z,44.18
2019-03-01T07:42:14.845Z,44.37
2019-03-01T07:43:14.809Z,44.74
2019-03-01T07:44:14.741Z,44.53
2019-03-01T07:45:14.754Z,44.33
2019-03-01T07:46:14.876Z,44.12
2019-03-01T07:47:14.705Z,43.9
2019-03-01T07:48:14.791Z,43.97
2019-03-01T07:49:14.819Z,43.59
2019-03-01T07:50:14.641Z,43.62
2019-03-01T07:51:14.811Z,43.54
2019-03-01T07:52:14.868Z,43.48
2019-03-01T07:53:14.642Z,43.37
2019-03-01T07:54:18.303Z,43.24
2019-03-01T07:55:14.941Z,43.17
2019-03-01T07:56:14.919Z,43.11
2019-03-01T07:57:15.906Z,43.02
2019-03-01T07:58:15.011Z,43
2019-03-01T07:59:14.881Z,42.97
2019-03-01T08:00:15.209Z,42.92
2019-03-01T08:01:14.807Z,42.88
2019-03-01T08:02:15.014Z,42.84
2019-03-01T08:03:16.218Z,42.9
2019-03-01T08:04:14.917Z,42.8
2019-03-01T08:05:17.075Z,42.81
2019-03-01T08:06:14.752Z,42.77
2019-03-01T08:07:14.908Z,42.7
2019-03-01T08:08:14.828Z,42.7
2019-03-01T08:09:14.690Z,42.62
2019-03-01T08:10:23.699Z,42.66
2019-03-01T08:11:15.000Z,42.61
2019-03-01T08:12:14.994Z,42.58
2019-03-01T08:13:18.684Z,42.53
2019-03-01T08:14:14.908Z,42.59
2019-03-01T08:15:14.712Z,42.57
2019-03-01T08:16:21.672Z,42.56
2019-03-01T08:17:14.846Z,42.49
2019-03-01T08:18:14.831Z,42.42
2019-03-01T08:19:23.877Z,42.46
2019-03-01T08:20:15.121Z,42.42
2019-03-01T08:21:15.303Z,42.42
2019-03-01T08:22:14.879Z,42.43
2019-03-01T08:23:14.822Z,42.39
2019-03-01T08:24:14.705Z,42.35
2019-03-01T08:25:15.033Z,42.36
2019-03-01T08:26:14.995Z,42.32
2019-03-01T08:27:14.717Z,42.29
2019-03-01T08:28:14.937Z,42.33
2019-03-01T08:29:14.837Z,42.32
2019-03-01T08:30:14.732Z,42.25
2019-03-01T08:31:22.437Z,42.21
2019-03-01T08:32:14.846Z,42.25
2019-03-01T08:33:15.004Z,42.28
2019-03-01T08:34:18.887Z,42.27
2019-03-01T08:35:14.964Z,42.23
2019-03-01T08:36:14.814Z,42.24
2019-03-01T08:37:18.727Z,42.26
2019-03-01T08:38:14.935Z,42.17
2019-03-01T08:39:14.713Z,42.25
2019-03-01T08:40:15.923Z,42.2
2019-03-01T08:41:14.861Z,42.19
2019-03-01T08:42:14.666Z,42.13
2019-03-01T08:43:14.783Z,42.2
2019-03-01T08:44:14.895Z,42.18
2019-03-01T08:45:14.708Z,42.21
2019-03-01T08:46:14.819Z,42.15
2019-03-01T08:47:24.869Z,42.38
2019-03-01T08:48:14.684Z,42.43
2019-03-01T08:49:14.854Z,42.82
2019-03-01T08:50:15.010Z,42.86
2019-03-01T08:51:14.658Z,43.14
2019-03-01T08:52:14.718Z,43.42
2019-03-01T08:53:16.366Z,43.46
2019-03-01T08:54:14.828Z,43.45
2019-03-01T08:55:14.791Z,43.37
2019-03-01T08:56:15.790Z,43.28
2019-03-01T08:57:14.659Z,43.1
2019-03-01T08:58:14.967Z,43.07
2019-03-01T08:59:18.972Z,42.98
2019-03-01T09:00:14.686Z,43.05
2019-03-01T09:01:14.760Z,43.02
2019-03-01T09:02:14.771Z,42.98
2019-03-01T09:03:23.354Z,42.93
2019-03-01T09:04:21.860Z,42.89
2019-03-01T09:05:14.883Z,43
2019-03-01T09:06:14.645Z,42.87
2019-03-01T09:07:14.753Z,42.91
2019-03-01T09:08:14.807Z,42.92
2019-03-01T09:09:22.189Z,42.89
2019-03-01T09:10:15.072Z,43.02
2019-03-01T09:11:14.765Z,42.91
2019-03-01T09:12:14.897Z,42.94
2019-03-01T09:13:14.849Z,42.9
2019-03-01T09:14:14.722Z,42.94
2019-03-01T09:15:14.908Z,42.93
2019-03-01T09:16:14.704Z,42.89
2019-03-01T09:17:14.717Z,42.96
2019-03-01T09:18:15.653Z,43.01
2019-03-01T09:19:15.046Z,43.02
2019-03-01T09:20:14.720Z,42.99
2019-03-01T09:21:14.866Z,42.97
2019-03-01T09:22:14.682Z,43.07
2019-03-01T09:23:27.568Z,43.03
2019-03-01T09:24:14.864Z,43.08
2019-03-01T09:25:14.904Z,43.07
2019-03-01T09:26:20.983Z,43.02
2019-03-01T09:27:14.822Z,43.01
2019-03-01T09:28:14.975Z,43.06
2019-03-01T09:29:19.693Z,43.09
2019-03-01T09:30:14.917Z,43.09
2019-03-01T09:31:14.829Z,43.05
2019-03-01T09:32:14.661Z,43.03
2019-03-01T09:33:23.261Z,43.07
2019-03-01T09:34:14.841Z,43.05
2019-03-01T09:35:14.790Z,43.01
2019-03-01T09:36:21.780Z,43.05
2019-03-01T09:37:14.848Z,43.07
2019-03-01T09:38:14.708Z,43.1
2019-03-01T09:39:19.457Z,43.05
2019-03-01T09:40:14.998Z,43.02
2019-03-01T09:41:14.684Z,43.03
2019-03-01T09:42:16.693Z,43.03
2019-03-01T09:43:14.826Z,43.01
2019-03-01T09:44:14.648Z,42.96
2019-03-01T09:45:14.873Z,42.92
2019-03-01T09:46:14.789Z,42.82
2019-03-01T09:47:14.672Z,42.83
2019-03-01T09:48:14.787Z,42.81
2019-03-01T09:49:14.806Z,42.78
2019-03-01T09:50:14.779Z,42.81
2019-03-01T09:51:16.307Z,42.8
2019-03-01T09:52:14.837Z,42.77
2019-03-01T09:53:14.625Z,42.76
2019-03-01T09:54:14.823Z,43.11
2019-03-01T09:55:14.791Z,43.03
2019-03-01T09:56:14.757Z,43.05
2019-03-01T09:57:16.717Z,43.06
2019-03-01T09:58:14.987Z,43.07
2019-03-01T09:59:14.638Z,42.97
2019-03-01T10:00:14.835Z,43.1
2019-03-01T10:01:14.919Z,43.15
2019-03-01T10:02:14.802Z,43.14
2019-03-01T10:03:14.810Z,43.18
2019-03-01T10:04:14.939Z,43.17
2019-03-01T10:05:14.678Z,43.18
2019-03-01T10:06:14.803Z,43.23
2019-03-01T10:07:14.805Z,43.16
2019-03-01T10:08:14.705Z,43.16
2019-03-01T10:09:14.787Z,43.14
2019-03-01T10:10:14.804Z,43.21
2019-03-01T10:11:14.647Z,43.17
2019-03-01T10:12:14.715Z,43.13
2019-03-01T10:13:14.875Z,43.13
2019-03-01T10:14:14.769Z,43.17
2019-03-01T10:15:14.739Z,43.27
2019-03-01T10:16:14.868Z,43.27
2019-03-01T10:17:14.628Z,43.24
2019-03-01T10:18:14.781Z,43.28
2019-03-01T10:19:14.791Z,43.26
2019-03-01T10:20:14.672Z,43.33
2019-03-01T10:21:14.825Z,43.5
2019-03-01T10:22:14.798Z,43.56
2019-03-01T10:23:14.888Z,43.66
2019-03-01T10:24:15.175Z,43.56
2019-03-01T10:25:14.888Z,43.47
2019-03-01T10:26:14.618Z,43.5
2019-03-01T10:27:14.825Z,43.52
2019-03-01T10:28:14.658Z,43.52
2019-03-01T10:29:14.670Z,43.49
2019-03-01T10:30:14.853Z,43.5
2019-03-01T10:31:14.663Z,43.54
2019-03-01T10:32:14.682Z,43.55
2019-03-01T10:33:14.843Z,43.55
2019-03-01T10:34:14.707Z,43.55
2019-03-01T10:35:14.846Z,43.58
2019-03-01T10:36:14.882Z,43.54
2019-03-01T10:37:14.652Z,43.54
2019-03-01T10:38:14.661Z,43.54
2019-03-01T10:39:14.867Z,43.57
2019-03-01T10:40:14.682Z,43.57
2019-03-01T10:41:14.736Z,43.53
2019-03-01T10:42:14.916Z,43.61
2019-03-01T10:43:14.710Z,43.54
2019-03-01T10:44:14.714Z,43.53
2019-03-01T10:45:14.864Z,43.52
2019-03-01T10:46:14.864Z,43.38
2019-03-01T10:47:14.781Z,43.44
2019-03-01T10:48:14.775Z,43.47
2019-03-01T10:49:14.962Z,43.5
2019-03-01T10:50:14.771Z,43.44
2019-03-01T10:51:14.992Z,43.46
2019-03-01T10:52:14.795Z,43.42
2019-03-01T10:53:15.738Z,43.39
2019-03-01T10:54:14.748Z,43.35
2019-03-01T10:55:14.886Z,43.34
2019-03-01T10:56:14.612Z,43.35
2019-03-01T10:57:16.089Z,43.35
2019-03-01T10:58:14.787Z,43.3
2019-03-01T10:59:14.610Z,43.26
2019-03-01T11:00:14.947Z,43.27
2019-03-01T11:01:14.762Z,43.24
2019-03-01T11:02:14.610Z,43.23
2019-03-01T11:03:14.810Z,43.19
2019-03-01T11:04:14.917Z,43.25
2019-03-01T11:05:14.634Z,43.26
2019-03-01T11:06:14.936Z,43.22
2019-03-01T11:07:14.782Z,43.25
2019-03-01T11:08:14.966Z,43.21
2019-03-01T11:09:14.792Z,43.17
2019-03-01T11:10:14.841Z,43.21
2019-03-01T11:11:14.731Z,43.22
2019-03-01T11:12:14.808Z,43.2
2019-03-01T11:13:14.618Z,43.18
2019-03-01T11:14:14.734Z,43.19
2019-03-01T11:15:14.887Z,43.17
2019-03-01T11:16:14.679Z,43.18
2019-03-01T11:17:14.710Z,43.2
2019-03-01T11:18:14.851Z,43.22
2019-03-01T11:19:14.672Z,43.19
2019-03-01T11:20:14.696Z,43.18
2019-03-01T11:21:14.856Z,43.2
2019-03-01T11:22:14.750Z,43.15
2019-03-01T11:23:14.710Z,43.14
2019-03-01T11:24:14.816Z,43.14
2019-03-01T11:25:14.719Z,43.19
2019-03-01T11:26:14.688Z,43.18
2019-03-01T11:27:14.844Z,43.18
2019-03-01T11:28:14.604Z,43.18
2019-03-01T11:29:14.831Z,43.17
2019-03-01T11:30:14.976Z,43.13
2019-03-01T11:31:14.634Z,43.15
2019-03-01T11:32:14.857Z,43.11
2019-03-01T11:33:14.882Z,43.15
2019-03-01T11:34:14.759Z,43.17
2019-03-01T11:35:14.755Z,43.17
2019-03-01T11:36:14.674Z,43.14
2019-03-01T11:37:14.660Z,43.14
2019-03-01T11:38:14.738Z,43.14
2019-03-01T11:39:14.577Z,43.15
2019-03-01T11:40:14.789Z,43.12
2019-03-01T11:41:14.742Z,43.06
2019-03-01T11:42:14.617Z,43.09
2019-03-01T11:43:14.676Z,43.11
2019-03-01T11:44:14.738Z,43.02
2019-03-01T11:45:14.670Z,43.06
2019-03-01T11:46:14.777Z,43.04
2019-03-01T11:47:14.726Z,43.07
2019-03-01T11:48:14.594Z,43.24
2019-03-01T11:49:14.728Z,43.38
2019-03-01T11:50:14.752Z,43.5
2019-03-01T11:51:14.555Z,43.52
2019-03-01T11:52:14.930Z,43.56
2019-03-01T11:53:14.769Z,43.63
2019-03-01T11:54:14.618Z,43.79
2019-03-01T11:55:14.705Z,43.87
2019-03-01T11:56:14.852Z,44.07
2019-03-01T11:57:14.612Z,44.12
2019-03-01T11:58:14.766Z,44.09
2019-03-01T11:59:14.721Z,43.94
2019-03-01T12:00:14.661Z,43.89
2019-03-01T12:01:17.844Z,43.76
2019-03-01T12:02:14.613Z,43.67
2019-03-01T12:03:15.829Z,43.59
2019-03-01T12:04:14.776Z,43.5
2019-03-01T12:05:14.577Z,43.45
2019-03-01T12:06:14.897Z,43.43
2019-03-01T12:07:14.774Z,43.34
2019-03-01T12:08:14.603Z,43.31
2019-03-01T12:09:14.886Z,43.32
2019-03-01T12:10:14.804Z,43.19
2019-03-01T12:11:14.571Z,43.23
2019-03-01T12:12:14.617Z,43.15
2019-03-01T12:13:14.854Z,43.22
2019-03-01T12:14:14.664Z,43.19
2019-03-01T12:15:14.999Z,43.2
2019-03-01T12:16:14.946Z,43.14
2019-03-01T12:17:14.769Z,43.01
2019-03-01T12:18:14.770Z,43.61
2019-03-01T12:19:14.783Z,43.72
2019-03-01T12:20:14.642Z,43.6
2019-03-01T12:21:14.776Z,43.52
2019-03-01T12:22:17.868Z,43.48
2019-03-01T12:23:14.757Z,43.45
2019-03-01T12:24:14.719Z,43.18
2019-03-01T12:25:14.778Z,43.15
2019-03-01T12:26:14.891Z,43.04
2019-03-01T12:27:14.637Z,43.06
2019-03-01T12:28:14.745Z,43.05
2019-03-01T12:29:14.868Z,43.01
2019-03-01T12:30:15.063Z,43.03
2019-03-01T12:31:14.733Z,42.99
2019-03-01T12:32:14.761Z,43.02
2019-03-01T12:33:14.745Z,43.01
2019-03-01T12:34:14.673Z,43.02
2019-03-01T12:35:14.803Z,43.02
2019-03-01T12:36:14.742Z,42.98
2019-03-01T12:37:14.652Z,42.95
2019-03-01T12:38:14.859Z,42.95
2019-03-01T12:39:14.639Z,42.96
2019-03-01T12:40:14.808Z,43
2019-03-01T12:41:14.795Z,43
2019-03-01T12:42:14.753Z,43.04
2019-03-01T12:43:14.738Z,43.06
2019-03-01T12:44:14.568Z,43.11
2019-03-01T12:45:14.587Z,43.13
2019-03-01T12:46:14.784Z,43.05
2019-03-01T12:47:14.783Z,43.09
2019-03-01T12:48:14.628Z,42.89
2019-03-01T12:49:14.724Z,43.07
2019-03-01T12:50:14.603Z,42.98
2019-03-01T12:51:14.599Z,42.99
2019-03-01T12:52:14.770Z,43.04
2019-03-01T12:53:14.639Z,42.96
2019-03-01T12:54:14.619Z,43.05
2019-03-01T12:55:14.763Z,43.02
2019-03-01T12:56:14.516Z,43